Tropical Cyclones
[Index]
Main Index Home Page Stock Weather Photos Extreme Storms Discussion Storm News and Storm Chasing Reports Tropical Cyclones / Hurricanes / Typhoons Weather Data and Links Wild Fires / Bushfires Weather Observation Techniques Weather Picture Catalogue Tornado Pictures and Reports Stock Video Footage and DVDs for sale
Season 1974-1975 Tropical Cyclone FLORA Track Map
Season 1974-1975 Summaries: [BoM-AU] [JTWC-AU] [JTWC-SIO] [JTWC-SPAC] [JTWC-SH]
<<- Previous TC | JTWC 1974-1975 Season | Next TC ->>

click for intensity scale information  Lat/long Grid: Show Hide

 Date Labels: Show Hide

Joint Typhoon Warning Centre Cyclone Data

Name: FLORA
Number: 884 / 7512

13 Jan 1975 00:00 UTC to 22 Jan 1975 00:00 UTC

    date/time    lat    long     hPa   cat  kts
1975-01-13 00   12.0   159.3                              
1975-01-13 06   12.4   159.3                              
1975-01-13 12   12.9   159.5                              
1975-01-13 18   13.4   159.7                              
1975-01-14 00   14.0   160.0                              
1975-01-14 06   14.8   160.2                              
1975-01-14 12   15.6   160.5                              
1975-01-14 18   16.4   160.8                              
1975-01-15 00   17.3   161.3                              
1975-01-15 06   18.0   163.0                              
1975-01-15 12   18.4   165.0                              
1975-01-15 18   18.3   166.0                              
1975-01-16 00   18.3   167.1                              
1975-01-16 06   18.8   168.7                              
1975-01-16 12   19.6   170.4                              
1975-01-16 18   20.6   172.2                              
1975-01-17 00   21.5   174.0                              
1975-01-17 06   22.2   175.4                              
1975-01-17 12   22.8   176.8                              
1975-01-17 18   23.8   178.5                              
1975-01-18 00   24.6   180.0                              
1975-01-18 06   25.0   179.0W                             
1975-01-18 12   25.4   178.0W                             
1975-01-18 18   25.8   177.0W                             
1975-01-19 00   26.2   176.0W                             
1975-01-19 06   26.6   175.0W                             
1975-01-19 12   26.9   174.1W                             
1975-01-19 18   27.2   173.1W                             
1975-01-20 00   27.6   171.9W                             
1975-01-20 06   27.9   170.2W                             
1975-01-20 12   28.0   168.2W                             
1975-01-20 18   28.0   166.1W                             
1975-01-21 00   28.0   164.0W                             
1975-01-21 06   28.0   161.9W                             
1975-01-21 12   28.1   159.8W                             
1975-01-21 18   28.3   157.7W                             
1975-01-22 00   28.6   155.5W                             
Winds are 1-min average.

Tropical cyclone tracks developed by Michael Bath using data from the Joint Typhoon Warning Centre Best Tracks and Google Maps.


[Australian Severe Weather index] [Copyright Notice] [Email Contacts] [Search This Site] [Privacy Policy]
Document: tropical_cyclone_flora.htm Updated: 18 September 2016